createdAt,value
2019-01-23T00:03:52.074Z,96491.73
2019-01-23T00:07:56.774Z,96483.95
2019-01-23T00:12:01.467Z,96481.30
2019-01-23T00:16:06.170Z,96474.41
2019-01-23T00:20:10.868Z,96469.56
2019-01-23T00:24:15.569Z,96458.23
2019-01-23T00:28:21.237Z,96456.17
2019-01-23T00:32:25.922Z,96447.66
2019-01-23T00:36:30.616Z,96445.98
2019-01-23T00:40:35.312Z,96443.09
2019-01-23T00:44:40.014Z,96442.33
2019-01-23T00:48:44.718Z,96436.41
2019-01-23T00:52:49.403Z,96434.45
2019-01-23T00:56:55.169Z,96431.38
2019-01-23T01:00:59.866Z,96427.52
2019-01-23T01:05:05.538Z,96418.70
2019-01-23T01:09:10.245Z,96409.76
2019-01-23T01:13:14.923Z,96403.65
2019-01-23T01:17:19.625Z,96406.13
2019-01-23T01:21:24.321Z,96404.25
2019-01-23T01:25:29.015Z,96404.23
2019-01-23T01:29:33.714Z,96404.64
2019-01-23T01:33:38.402Z,96404.16
2019-01-23T01:37:43.100Z,96401.16
2019-01-23T01:41:47.796Z,96399.04
2019-01-23T01:45:52.494Z,96395.19
2019-01-23T01:49:57.197Z,96387.86
2019-01-23T01:54:01.888Z,96390.02
2019-01-23T01:58:10.243Z,96382.81
2019-01-23T02:02:12.980Z,96384.45
2019-01-23T02:06:17.682Z,96383.75
2019-01-23T02:10:22.380Z,96366.09
2019-01-23T02:14:27.070Z,96366.13
2019-01-23T02:18:31.769Z,96363.28
2019-01-23T02:22:36.475Z,96357.00
2019-01-23T02:26:41.165Z,96352.82
2019-01-23T02:30:45.848Z,96348.86
2019-01-23T02:34:50.552Z,96341.13
2019-01-23T02:38:55.251Z,96336.11
2019-01-23T02:42:59.945Z,96328.82
2019-01-23T02:47:04.663Z,96324.66
2019-01-23T02:51:09.345Z,96322.48
2019-01-23T02:55:14.043Z,96313.08
2019-01-23T02:59:18.745Z,96308.72
2019-01-23T03:03:23.438Z,96303.81
2019-01-23T03:07:28.121Z,96302.08
2019-01-23T03:11:32.819Z,96297.39
2019-01-23T03:15:37.514Z,96293.09
2019-01-23T03:19:42.283Z,96292.26
2019-01-23T03:23:47.053Z,96283.30
2019-01-23T03:27:51.745Z,96275.64
2019-01-23T03:31:56.439Z,96273.97
2019-01-23T03:36:01.142Z,96271.46
2019-01-23T03:40:17.390Z,96265.50
2019-01-23T03:44:22.092Z,96263.76
2019-01-23T03:48:26.792Z,96264.70
2019-01-23T03:52:31.478Z,96261.39
2019-01-23T03:56:36.174Z,96260.56
2019-01-23T04:00:40.873Z,96260.59
2019-01-23T04:04:45.577Z,96251.13
2019-01-23T04:08:51.343Z,96256.92
2019-01-23T04:12:56.039Z,96258.41
2019-01-23T04:17:00.743Z,96252.33
2019-01-23T04:21:05.442Z,96249.22
2019-01-23T04:25:10.510Z,96243.75
2019-01-23T04:29:15.210Z,96236.05
2019-01-23T04:33:19.904Z,96241.19
2019-01-23T04:37:24.599Z,96235.98
2019-01-23T04:41:29.297Z,96233.20
2019-01-23T04:45:33.994Z,96234.15
2019-01-23T04:49:38.681Z,96224.50
2019-01-23T04:53:45.049Z,96224.62
2019-01-23T04:57:49.758Z,96214.28
2019-01-23T05:01:54.456Z,96213.08
2019-01-23T05:05:59.148Z,96208.48
2019-01-23T05:10:05.376Z,96215.77
2019-01-23T05:14:10.074Z,96211.13
2019-01-23T05:18:14.772Z,96207.59
2019-01-23T05:22:19.481Z,96207.53
2019-01-23T05:26:24.172Z,96205.89
2019-01-23T05:30:28.856Z,96210.71
2019-01-23T05:34:33.564Z,96206.86
2019-01-23T05:38:38.269Z,96201.38
2019-01-23T05:42:42.969Z,96205.25
2019-01-23T05:46:47.743Z,96204.09
2019-01-23T05:50:52.427Z,96200.94
2019-01-23T05:54:57.126Z,96197.36
2019-01-23T05:59:01.835Z,96194.85
2019-01-23T06:03:06.525Z,96195.83
2019-01-23T06:07:11.221Z,96194.11
2019-01-23T06:11:15.911Z,96194.98
2019-01-23T06:15:20.610Z,96194.77
2019-01-23T06:19:26.381Z,96191.64
2019-01-23T06:23:31.080Z,96189.53
2019-01-23T06:27:35.847Z,96189.22
2019-01-23T06:31:40.537Z,96191.64
2019-01-23T06:35:45.240Z,96193.91
2019-01-23T06:39:49.952Z,96194.44
2019-01-23T06:43:54.648Z,96189.92
2019-01-23T06:47:59.346Z,96192.88
2019-01-23T06:52:04.038Z,96189.77
2019-01-23T06:56:08.739Z,96192.00
2019-01-23T07:00:18.790Z,96190.80
2019-01-23T07:04:23.479Z,96192.44
2019-01-23T07:08:28.176Z,96198.16
2019-01-23T07:12:32.868Z,96185.38
2019-01-23T07:16:38.636Z,96183.73
2019-01-23T07:20:43.337Z,96183.35
2019-01-23T07:24:48.045Z,96186.61
2019-01-23T07:28:52.749Z,96185.02
2019-01-23T07:32:57.441Z,96183.99
2019-01-23T07:37:02.148Z,96181.41
2019-01-23T07:41:07.820Z,96177.78
2019-01-23T07:45:15.817Z,96181.06
2019-01-23T07:49:20.511Z,96183.11
2019-01-23T07:53:25.217Z,96184.63
2019-01-23T07:57:29.915Z,96189.87
2019-01-23T08:01:34.611Z,96180.86
2019-01-23T08:05:39.309Z,96183.63
2019-01-23T08:09:43.997Z,96181.97
2019-01-23T08:13:48.738Z,96179.02
2019-01-23T08:17:53.407Z,96181.08
2019-01-23T08:21:58.109Z,96179.24
2019-01-23T08:26:02.817Z,96179.48
2019-01-23T08:30:10.347Z,96179.89
2019-01-23T08:34:15.055Z,96180.36
2019-01-23T08:38:19.752Z,96177.79
2019-01-23T08:42:24.457Z,96182.03
2019-01-23T08:46:29.204Z,96182.87
2019-01-23T08:50:36.700Z,96179.78
2019-01-23T08:54:41.405Z,96179.23
2019-01-23T08:58:46.104Z,96184.61
2019-01-23T09:02:50.807Z,96191.58
2019-01-23T09:06:55.498Z,96191.42
2019-01-23T09:11:00.195Z,96185.05
2019-01-23T09:15:08.233Z,96179.05
2019-01-23T09:19:12.935Z,96187.79
2019-01-23T09:23:17.641Z,96188.41
2019-01-23T09:27:22.327Z,96194.28
2019-01-23T09:31:33.069Z,96194.52
2019-01-23T09:36:06.486Z,96191.80
2019-01-23T09:40:14.440Z,96194.13
2019-01-23T09:44:37.534Z,96184.73
2019-01-23T09:48:54.365Z,96191.24
2019-01-23T09:53:02.330Z,96190.98
2019-01-23T09:57:07.013Z,96199.56
2019-01-23T10:01:11.710Z,96202.75
2019-01-23T10:05:16.474Z,96202.77
2019-01-23T10:09:21.174Z,96203.05
2019-01-23T10:13:25.869Z,96212.76
2019-01-23T10:17:30.562Z,96202.35
2019-01-23T10:21:35.259Z,96199.64
2019-01-23T10:25:39.959Z,96194.28
2019-01-23T10:29:44.652Z,96196.67
2019-01-23T10:33:49.355Z,96193.64
2019-01-23T10:37:54.045Z,96187.77
2019-01-23T10:41:58.746Z,96193.48
2019-01-23T10:46:03.440Z,96191.04
2019-01-23T10:50:11.176Z,96189.46
2019-01-23T10:54:15.873Z,96186.02
2019-01-23T10:58:20.570Z,96182.77
2019-01-23T11:02:25.273Z,96177.26
2019-01-23T11:06:29.974Z,96180.70
2019-01-23T11:10:34.670Z,96183.19
2019-01-23T11:14:39.373Z,96185.29
2019-01-23T11:18:44.063Z,96183.41
2019-01-23T11:22:48.762Z,96181.66
2019-01-23T11:26:53.465Z,96178.89
2019-01-23T11:30:58.165Z,96181.98
2019-01-23T11:35:02.869Z,96179.39
2019-01-23T11:39:08.292Z,96176.69
2019-01-23T11:43:12.991Z,96175.66
2019-01-23T11:47:17.695Z,96180.05
2019-01-23T11:51:22.392Z,96178.41
2019-01-23T11:55:27.091Z,96176.72
2019-01-23T11:59:31.776Z,96175.48
2019-01-23T12:03:36.474Z,96172.95
2019-01-23T12:07:41.176Z,96178.09
2019-01-23T12:11:45.883Z,96183.83
2019-01-23T12:15:50.580Z,96182.67
2019-01-23T12:19:55.260Z,96188.81
2019-01-23T12:23:59.965Z,96186.10
2019-01-23T12:28:04.665Z,96195.62
2019-01-23T12:32:09.363Z,96187.95
2019-01-23T12:36:14.067Z,96189.75
2019-01-23T12:40:18.750Z,96196.16
2019-01-23T12:44:23.453Z,96188.26
2019-01-23T12:48:28.151Z,96192.41
2019-01-23T12:52:32.846Z,96192.28
2019-01-23T12:56:37.536Z,96189.00
2019-01-23T13:00:42.238Z,96188.53
2019-01-23T13:04:46.945Z,96192.45
2019-01-23T13:08:51.643Z,96194.95
2019-01-23T13:12:56.411Z,96191.74
2019-01-23T13:17:01.106Z,96190.58
2019-01-23T13:21:05.813Z,96191.37
2019-01-23T13:25:24.302Z,96193.17
2019-01-23T13:29:29.958Z,96195.20
2019-01-23T13:33:34.667Z,96199.42
2019-01-23T13:37:39.368Z,96196.62
2019-01-23T13:41:44.057Z,96199.19
2019-01-23T13:45:48.751Z,96207.13
2019-01-23T13:49:53.464Z,96203.88
2019-01-23T13:53:58.162Z,96208.75
2019-01-23T13:58:02.855Z,96206.86
2019-01-23T14:02:07.548Z,96206.95
2019-01-23T14:06:12.243Z,96215.95
2019-01-23T14:10:17.775Z,96210.07
2019-01-23T14:14:22.475Z,96208.22
2019-01-23T14:18:27.175Z,96209.22
2019-01-23T14:22:31.868Z,96213.61
2019-01-23T14:26:36.568Z,96215.41
2019-01-23T14:30:42.910Z,96226.11
2019-01-23T14:34:47.606Z,96221.85
2019-01-23T14:38:52.301Z,96227.32
2019-01-23T14:42:56.985Z,96224.30
2019-01-23T14:47:01.687Z,96226.29
2019-01-23T14:51:06.385Z,96231.23
2019-01-23T14:55:11.351Z,96236.55
2019-01-23T14:59:16.047Z,96237.07
2019-01-23T15:03:20.747Z,96243.84
2019-01-23T15:07:25.458Z,96245.64
2019-01-23T15:11:30.156Z,96246.96
2019-01-23T15:15:34.859Z,96255.15
2019-01-23T15:19:39.558Z,96263.83
2019-01-23T15:23:45.120Z,96270.56
2019-01-23T15:27:49.823Z,96272.39
2019-01-23T15:31:54.523Z,96274.13
2019-01-23T15:35:59.226Z,96274.09
2019-01-23T15:40:06.461Z,96276.92
2019-01-23T15:44:11.156Z,96282.32
2019-01-23T15:48:16.825Z,96285.59
2019-01-23T15:52:21.524Z,96295.42
2019-01-23T15:56:26.222Z,96295.91
2019-01-23T16:00:32.251Z,96296.11
2019-01-23T16:04:36.954Z,96302.27
2019-01-23T16:08:41.657Z,96301.57
2019-01-23T16:12:46.357Z,96302.23
2019-01-23T16:16:51.069Z,96307.06
2019-01-23T16:20:55.752Z,96312.70
2019-01-23T16:25:01.755Z,96317.91
2019-01-23T16:29:06.820Z,96328.29
2019-01-23T16:33:11.525Z,96322.97
2019-01-23T16:37:16.223Z,96327.30
2019-01-23T16:41:20.927Z,96329.43
2019-01-23T16:45:25.623Z,96326.98
2019-01-23T16:49:30.316Z,96342.49
2019-01-23T16:53:35.024Z,96343.73
2019-01-23T16:57:39.726Z,96353.61
2019-01-23T17:01:44.459Z,96354.97
2019-01-23T17:05:49.157Z,96357.55
2019-01-23T17:09:53.854Z,96365.14
2019-01-23T17:13:58.554Z,96362.92
2019-01-23T17:18:03.252Z,96369.45
2019-01-23T17:22:07.997Z,96373.80
2019-01-23T17:26:12.634Z,96377.98
2019-01-23T17:30:18.578Z,96382.08
2019-01-23T17:34:23.279Z,96386.43
2019-01-23T17:38:27.980Z,96390.72
2019-01-23T17:42:32.682Z,96392.08
2019-01-23T17:46:37.379Z,96388.30
2019-01-23T17:50:42.078Z,96400.06
2019-01-23T17:54:46.776Z,96397.73
2019-01-23T17:58:51.469Z,96399.78
2019-01-23T18:02:56.172Z,96400.55
2019-01-23T18:07:00.866Z,96409.02
2019-01-23T18:11:06.540Z,96410.72
2019-01-23T18:15:14.506Z,96420.69
2019-01-23T18:19:19.207Z,96427.97
2019-01-23T18:23:23.935Z,96428.80
2019-01-23T18:27:28.634Z,96433.31
2019-01-23T18:31:33.964Z,96438.35
2019-01-23T18:36:00.158Z,96448.13
2019-01-23T18:40:20.164Z,96447.23
2019-01-23T18:44:43.317Z,96456.92
2019-01-23T18:49:24.705Z,96459.17
2019-01-23T18:53:29.389Z,96463.09
2019-01-23T18:57:34.098Z,96463.41
2019-01-23T19:01:38.869Z,96464.86
2019-01-23T19:05:43.573Z,96472.97
2019-01-23T19:09:48.280Z,96468.83
2019-01-23T19:13:52.969Z,96481.88
2019-01-23T19:17:57.710Z,96485.55
2019-01-23T19:22:02.362Z,96481.51
2019-01-23T19:26:07.067Z,96481.05
2019-01-23T19:30:22.472Z,96484.38
2019-01-23T19:34:27.393Z,96490.23
2019-01-23T19:38:32.046Z,96493.05
2019-01-23T19:42:36.754Z,96494.52
2019-01-23T19:46:41.452Z,96494.63
2019-01-23T19:50:46.153Z,96492.12
2019-01-23T19:54:50.843Z,96507.38
2019-01-23T19:58:55.537Z,96515.78
2019-01-23T20:03:00.235Z,96515.51
2019-01-23T20:07:06.007Z,96522.05
2019-01-23T20:11:11.779Z,96524.63
2019-01-23T20:15:18.207Z,96527.63
2019-01-23T20:19:22.909Z,96528.56
2019-01-23T20:23:27.606Z,96528.97
2019-01-23T20:27:32.305Z,96531.62
2019-01-23T20:31:37.008Z,96539.88
2019-01-23T20:35:41.775Z,96541.71
2019-01-23T20:39:46.474Z,96539.57
2019-01-23T20:43:51.177Z,96548.47
2019-01-23T20:47:57.510Z,96554.88
2019-01-23T20:52:02.212Z,96549.27
2019-01-23T20:56:06.906Z,96548.70
2019-01-23T21:00:17.354Z,96555.97
2019-01-23T21:04:22.052Z,96566.67
2019-01-23T21:08:26.762Z,96561.73
2019-01-23T21:12:31.457Z,96571.27
2019-01-23T21:16:36.146Z,96573.89
2019-01-23T21:20:40.838Z,96572.61
2019-01-23T21:24:45.538Z,96577.25
2019-01-23T21:28:50.255Z,96576.03
2019-01-23T21:32:54.956Z,96587.91
2019-01-23T21:36:59.661Z,96588.41
2019-01-23T21:41:04.365Z,96587.56
2019-01-23T21:45:12.105Z,96596.91
2019-01-23T21:49:16.808Z,96588.28
2019-01-23T21:53:21.511Z,96596.78
2019-01-23T21:57:26.213Z,96593.13
2019-01-23T22:01:30.915Z,96596.95
2019-01-23T22:05:35.615Z,96603.95
2019-01-23T22:09:40.308Z,96607.39
2019-01-23T22:13:45.005Z,96612.57
2019-01-23T22:17:49.705Z,96624.96
2019-01-23T22:21:54.390Z,96624.16
2019-01-23T22:25:59.088Z,96637.82
2019-01-23T22:30:06.082Z,96635.26
2019-01-23T22:34:10.784Z,96639.05
2019-01-23T22:38:15.472Z,96653.58
2019-01-23T22:42:20.157Z,96647.64
2019-01-23T22:46:24.856Z,96653.53
2019-01-23T22:50:29.554Z,96653.95
2019-01-23T22:54:34.252Z,96663.78
2019-01-23T22:58:38.945Z,96669.52
2019-01-23T23:02:43.647Z,96669.20
2019-01-23T23:06:48.347Z,96673.09
2019-01-23T23:10:53.046Z,96682.82
2019-01-23T23:14:57.742Z,96684.23
2019-01-23T23:19:02.435Z,96691.49
2019-01-23T23:23:07.133Z,96688.59
2019-01-23T23:27:11.839Z,96700.19
2019-01-23T23:31:16.605Z,96707.06
2019-01-23T23:35:21.307Z,96706.63
2019-01-23T23:39:25.990Z,96719.44
2019-01-23T23:43:30.693Z,96719.91
2019-01-23T23:47:35.390Z,96727.12
2019-01-23T23:51:40.081Z,96734.80
2019-01-23T23:55:44.783Z,96735.66
2019-01-23T23:59:49.474Z,96742.48
